Time;durP1;ratioP1;P1;durP2;ratioP2;P2;SDS_P1;SDS_P2;PMS_P1;PMS_P2;Temp;Humidity;BMP_temperature;BMP_pressure;BME280_temperature;BME280_humidity;BME280_pressure;Samples;Min_cycle;Max_cycle;Signal;HPM_P1;HPM_P2
2023/07/30 00:00:33;;;;;;;;;2.25;0.75;;;;;19.85;59.75;100701.13;5031500;28;52183;-70
2023/07/30 00:02:59;;;;;;;;;0.75;0.00;;;;;19.81;59.45;100709.38;5033925;28;45331;-71
2023/07/30 00:05:24;;;;;;;;;0.75;0.75;;;;;19.77;59.28;100714.03;5048008;28;45311;-71
2023/07/30 00:07:49;;;;;;;;;1.00;1.00;;;;;19.72;59.26;100709.03;5022542;28;45195;-71
2023/07/30 00:10:15;;;;;;;;;2.25;1.00;;;;;19.69;59.47;100706.56;5034209;28;45408;-71
2023/07/30 00:12:41;;;;;;;;;1.00;1.00;;;;;19.67;59.20;100711.13;5019880;28;45242;-71
2023/07/30 00:15:07;;;;;;;;;1.75;1.50;;;;;19.62;58.93;100713.22;5043372;28;45400;-69
2023/07/30 00:17:32;;;;;;;;;3.00;3.00;;;;;19.54;58.58;100718.19;5023814;28;45838;-70
2023/07/30 00:19:57;;;;;;;;;6.75;3.00;;;;;19.46;58.89;100717.81;5029411;28;63203;-70
2023/07/30 00:22:23;;;;;;;;;3.75;2.50;;;;;19.45;59.00;100718.78;5054815;28;67642;-69
2023/07/30 00:24:48;;;;;;;;;2.50;2.00;;;;;19.44;59.05;100723.25;5021588;28;45599;-71
2023/07/30 00:27:13;;;;;;;;;3.50;2.00;;;;;19.41;58.94;100714.63;5040392;28;46547;-69
2023/07/30 00:29:39;;;;;;;;;2.25;2.00;;;;;19.39;58.94;100712.06;5032220;28;58143;-70
2023/07/30 00:32:04;;;;;;;;;1.00;1.00;;;;;19.33;59.44;100699.19;5038714;28;63298;-70
2023/07/30 00:34:30;;;;;;;;;5.00;2.00;;;;;19.32;59.28;100708.09;5039417;28;45351;-70
2023/07/30 00:36:55;;;;;;;;;4.50;2.00;;;;;19.27;58.70;100712.84;5033513;28;64086;-70
2023/07/30 00:39:20;;;;;;;;;2.00;1.00;;;;;19.19;59.11;100707.16;5039875;28;67423;-71
2023/07/30 00:41:46;;;;;;;;;3.00;1.00;;;;;19.12;58.94;100707.56;5038853;28;45408;-72
2023/07/30 00:44:11;;;;;;;;;1.00;1.00;;;;;19.09;59.42;100710.41;5031611;28;51368;-71
2023/07/30 00:46:37;;;;;;;;;1.00;1.00;;;;;19.05;59.73;100710.69;5026604;28;54579;-71
2023/07/30 00:49:02;;;;;;;;;3.00;1.00;;;;;19.03;59.87;100715.25;5037054;28;45994;-71
2023/07/30 00:51:29;;;;;;;;;3.00;2.75;;;;;19.05;60.27;100721.31;5037294;28;45521;-71
2023/07/30 00:53:55;;;;;;;;;2.75;0.75;;;;;19.04;60.67;100725.75;5021916;28;45313;-71
2023/07/30 00:56:20;;;;;;;;;2.00;2.00;;;;;19.04;60.31;100730.22;5053930;28;52563;-71
2023/07/30 00:58:48;;;;;;;;;5.00;2.00;;;;;19.05;61.47;100738.09;5039648;28;70885;-71
2023/07/30 01:01:13;;;;;;;;;4.75;3.00;;;;;19.05;60.57;100740.75;5033411;28;68668;-71
2023/07/30 01:03:39;;;;;;;;;1.00;1.00;;;;;19.06;60.91;100739.78;5027821;28;53561;-70
2023/07/30 01:06:04;;;;;;;;;1.00;1.00;;;;;19.06;60.83;100744.25;5032220;28;45390;-71
2023/07/30 01:08:30;;;;;;;;;1.00;1.00;;;;;19.10;60.79;100748.41;5024340;28;69658;-71
2023/07/30 01:10:56;;;;;;;;;3.00;1.50;;;;;19.12;60.47;100735.88;5015688;28;66804;-70
2023/07/30 01:13:21;;;;;;;;;1.00;1.00;;;;;19.16;60.01;100756.81;5039380;28;61529;-70
2023/07/30 01:15:47;;;;;;;;;2.00;1.00;;;;;19.09;60.06;100747.56;5031764;28;45538;-71
2023/07/30 01:18:12;;;;;;;;;1.00;1.00;;;;;19.06;59.70;100760.16;5038986;28;47756;-71
2023/07/30 01:20:38;;;;;;;;;2.75;2.00;;;;;19.01;59.80;100760.44;5036193;28;45414;-71
2023/07/30 01:23:03;;;;;;;;;0.75;0.50;;;;;18.99;59.61;100764.13;5034542;28;45197;-71
2023/07/30 01:25:30;;;;;;;;;1.75;0.50;;;;;18.94;59.67;100765.25;5022440;28;45460;-71
2023/07/30 01:27:59;;;;;;;;;7.00;1.00;;;;;18.87;59.35;100768.38;5036768;28;45403;-71
2023/07/30 01:30:32;;;;;;;;;2.50;1.00;;;;;18.86;59.54;100777.31;5034036;28;45952;-71
2023/07/30 01:32:58;;;;;;;;;1.25;1.00;;;;;18.85;59.47;100775.59;5035148;28;45383;-71
2023/07/30 01:35:27;;;;;;;;;2.75;1.00;;;;;18.84;59.38;100773.88;5047849;28;45578;-71
2023/07/30 01:37:53;;;;;;;;;1.00;0.00;;;;;18.87;59.33;100779.00;5036281;28;46206;-71
2023/07/30 01:40:19;;;;;;;;;0.00;0.00;;;;;18.82;59.45;100781.91;5033153;28;45959;-71
2023/07/30 01:42:45;;;;;;;;;3.00;1.00;;;;;18.86;59.34;100786.09;5025183;28;45416;-71
2023/07/30 01:45:10;;;;;;;;;2.25;0.75;;;;;18.88;59.26;100802.78;5028403;28;67345;-71
2023/07/30 01:47:35;;;;;;;;;3.00;1.00;;;;;18.91;58.98;100796.41;5035810;28;71158;-70
2023/07/30 01:50:01;;;;;;;;;0.25;0.25;;;;;18.87;59.09;100794.91;5035501;28;45274;-70
2023/07/30 01:52:26;;;;;;;;;1.00;1.00;;;;;18.89;59.18;100804.47;5038452;28;45305;-71
2023/07/30 01:54:51;;;;;;;;;1.00;1.00;;;;;18.90;58.87;100802.69;5032434;28;64032;-70
2023/07/30 01:57:17;;;;;;;;;1.25;0.75;;;;;18.91;59.26;100802.59;5033988;28;70833;-71
2023/07/30 01:59:42;;;;;;;;;1.50;1.00;;;;;18.93;59.37;100811.28;5034697;28;45355;-71
2023/07/30 02:02:08;;;;;;;;;0.50;0.50;;;;;18.96;59.24;100812.91;5032632;28;64738;-71
2023/07/30 02:04:33;;;;;;;;;1.00;0.75;;;;;19.00;59.44;100802.94;5028426;28;45715;-71
2023/07/30 02:06:58;;;;;;;;;2.00;1.00;;;;;19.01;59.38;100809.97;5018127;28;47253;-71
2023/07/30 02:09:24;;;;;;;;;1.00;1.00;;;;;19.02;59.62;100812.53;5037380;28;72883;-71
2023/07/30 02:11:49;;;;;;;;;1.00;1.00;;;;;19.01;59.38;100809.97;5037241;28;59347;-69
2023/07/30 02:14:14;;;;;;;;;2.25;2.00;;;;;18.99;59.81;100815.38;5051812;28;59653;-70
2023/07/30 02:16:40;;;;;;;;;1.00;1.00;;;;;18.98;59.63;100818.94;5028613;28;45466;-70
2023/07/30 02:19:05;;;;;;;;;2.00;1.00;;;;;18.93;59.52;100821.06;5025351;28;71339;-69
2023/07/30 02:21:32;;;;;;;;;4.00;1.50;;;;;18.95;59.84;100820.00;5038427;28;45367;-69
2023/07/30 02:23:58;;;;;;;;;2.25;1.00;;;;;18.93;59.34;100824.56;5036318;28;45155;-69
2023/07/30 02:26:24;;;;;;;;;4.00;1.00;;;;;18.88;59.54;100833.75;5036357;28;45334;-69
2023/07/30 02:28:49;;;;;;;;;3.00;0.00;;;;;18.82;59.48;100834.94;5035696;28;60085;-69
2023/07/30 02:31:14;;;;;;;;;1.50;1.00;;;;;18.77;59.84;100835.19;5037360;28;62479;-69
2023/07/30 02:33:40;;;;;;;;;1.00;1.00;;;;;18.71;60.12;100832.91;5034786;28;72789;-69
2023/07/30 02:36:05;;;;;;;;;5.00;1.00;;;;;18.69;60.09;100836.59;5027381;28;59160;-69
2023/07/30 02:38:30;;;;;;;;;1.00;0.00;;;;;18.69;60.05;100836.59;5021101;28;45497;-69
2023/07/30 02:40:56;;;;;;;;;2.50;1.00;;;;;18.71;60.13;100834.72;5038456;28;67693;-70
2023/07/30 02:43:21;;;;;;;;;1.00;1.00;;;;;18.70;60.13;100839.16;5030371;28;60093;-69
2023/07/30 02:45:47;;;;;;;;;3.50;1.00;;;;;18.67;60.15;100847.28;5034270;28;71683;-70
2023/07/30 02:48:13;;;;;;;;;1.50;1.00;;;;;18.68;60.74;100842.84;5018371;28;45405;-69
2023/07/30 02:50:38;;;;;;;;;2.25;1.00;;;;;18.68;60.37;100843.72;5037763;28;65307;-70
2023/07/30 02:53:03;;;;;;;;;1.25;1.25;;;;;18.70;60.40;100833.03;5034634;28;68592;-70
2023/07/30 02:55:29;;;;;;;;;2.00;1.00;;;;;18.70;60.10;100835.66;5034219;28;65205;-70
2023/07/30 02:57:54;;;;;;;;;1.50;0.75;;;;;18.68;60.50;100834.88;5013925;28;52023;-70
2023/07/30 03:00:19;;;;;;;;;1.25;1.00;;;;;18.70;60.22;100838.31;5034536;28;53041;-70
2023/07/30 03:02:44;;;;;;;;;1.50;1.00;;;;;18.67;60.08;100831.38;5033580;28;62160;-70
2023/07/30 03:05:10;;;;;;;;;1.00;1.00;;;;;18.63;60.25;100835.16;5020169;28;61167;-71
2023/07/30 03:07:35;;;;;;;;;1.00;0.00;;;;;18.62;60.11;100836.09;5036252;28;45422;-71
2023/07/30 03:10:01;;;;;;;;;1.00;1.00;;;;;18.59;60.31;100830.97;5032212;28;68480;-71
2023/07/30 03:12:26;;;;;;;;;0.75;0.25;;;;;18.56;60.56;100839.97;5040760;28;45375;-70
2023/07/30 03:14:52;;;;;;;;;1.25;1.25;;;;;18.56;60.58;100841.78;5041314;28;59243;-70
2023/07/30 03:17:17;;;;;;;;;3.00;1.00;;;;;18.54;60.54;100841.88;5023664;28;68031;-71
2023/07/30 03:19:42;;;;;;;;;3.00;1.00;;;;;18.50;60.85;100844.78;5020073;28;45442;-71
2023/07/30 03:22:08;;;;;;;;;4.00;1.00;;;;;18.45;60.44;100831.81;5025343;28;45460;-71
2023/07/30 03:24:33;;;;;;;;;1.75;1.25;;;;;18.46;60.69;100844.09;5036904;28;70992;-70
2023/07/30 03:26:58;;;;;;;;;0.50;0.50;;;;;18.44;60.62;100837.19;5035326;28;45236;-70
2023/07/30 03:29:24;;;;;;;;;4.25;1.00;;;;;18.40;60.49;100840.03;5038818;28;45507;-70
2023/07/30 03:31:49;;;;;;;;;2.00;2.00;;;;;18.40;60.92;100839.19;5032011;28;66055;-70
2023/07/30 03:34:14;;;;;;;;;1.75;1.25;;;;;18.38;61.19;100849.84;5031420;28;46351;-70
2023/07/30 03:36:40;;;;;;;;;2.75;2.75;;;;;18.38;61.40;100854.31;5039134;28;70327;-70
2023/07/30 03:39:05;;;;;;;;;1.75;1.25;;;;;18.37;61.37;100848.13;5033236;28;45399;-70
2023/07/30 03:41:31;;;;;;;;;2.75;2.00;;;;;18.33;61.19;100845.78;5019486;28;45398;-70
2023/07/30 03:43:56;;;;;;;;;3.50;2.00;;;;;18.34;61.56;100855.41;5036953;28;57367;-70
2023/07/30 03:46:21;;;;;;;;;3.00;1.00;;;;;18.34;61.41;100858.94;5035181;28;67586;-71
2023/07/30 03:48:50;;;;;;;;;2.00;1.00;;;;;18.32;61.63;100849.34;5035787;28;66185;-71
2023/07/30 03:51:15;;;;;;;;;3.75;2.00;;;;;18.34;61.70;100858.06;5023386;28;45606;-71
2023/07/30 03:53:42;;;;;;;;;2.50;1.00;;;;;18.32;61.66;100867.91;5040365;28;75680;-71
2023/07/30 03:56:07;;;;;;;;;2.00;0.75;;;;;18.30;61.86;100867.13;5026600;28;45279;-71
2023/07/30 03:58:33;;;;;;;;;4.25;3.00;;;;;18.28;61.71;100864.56;5027904;28;56160;-71
2023/07/30 04:00:58;;;;;;;;;2.50;1.75;;;;;18.27;61.89;100870.81;5036849;28;45362;-71
2023/07/30 04:03:24;;;;;;;;;6.25;1.00;;;;;18.25;62.20;100869.19;5015835;28;46127;-70
2023/07/30 04:05:49;;;;;;;;;0.75;0.75;;;;;18.24;62.02;100873.66;5020518;28;50370;-71
2023/07/30 04:08:15;;;;;;;;;6.00;1.00;;;;;18.23;61.91;100879.88;5035581;28;45341;-71
2023/07/30 04:10:41;;;;;;;;;4.50;1.25;;;;;18.22;62.37;100875.53;5039163;28;45411;-71
2023/07/30 04:13:07;;;;;;;;;6.25;1.00;;;;;18.21;61.89;100882.59;5033523;28;59381;-71
2023/07/30 04:15:33;;;;;;;;;2.25;1.00;;;;;18.21;62.18;100884.41;5039305;28;45303;-71
2023/07/30 04:17:58;;;;;;;;;1.00;1.00;;;;;18.22;62.11;100888.78;5027520;28;45338;-70
2023/07/30 04:20:24;;;;;;;;;2.00;1.00;;;;;18.20;61.97;100882.69;5050638;28;56853;-71
2023/07/30 04:22:49;;;;;;;;;5.25;1.00;;;;;18.17;62.21;100881.09;5013029;28;52888;-70
2023/07/30 04:25:14;;;;;;;;;3.50;1.75;;;;;18.17;61.98;100883.72;5038601;28;45297;-71
2023/07/30 04:27:40;;;;;;;;;1.00;1.00;;;;;18.16;61.80;100889.94;5039233;28;66061;-71
2023/07/30 04:30:06;;;;;;;;;9.75;3.25;;;;;18.15;62.18;100888.25;5034724;28;45446;-71
2023/07/30 04:32:31;;;;;;;;;1.75;1.00;;;;;18.16;62.21;100897.06;5035400;28;45505;-71
2023/07/30 04:34:57;;;;;;;;;3.50;2.00;;;;;18.15;62.22;100896.22;5034325;28;45391;-71
2023/07/30 04:37:22;;;;;;;;;5.00;1.00;;;;;18.16;62.39;100905.00;5030279;28;54161;-71
2023/07/30 04:39:47;;;;;;;;;3.00;1.25;;;;;18.15;62.24;100890.03;5033997;28;67739;-71
2023/07/30 04:42:13;;;;;;;;;1.50;1.00;;;;;18.16;62.13;100894.41;5031601;28;45425;-71
2023/07/30 04:44:38;;;;;;;;;1.75;0.75;;;;;18.18;62.25;100900.47;5039280;28;45265;-71
2023/07/30 04:47:04;;;;;;;;;0.25;0.25;;;;;18.18;62.08;100908.41;5037120;28;45342;-71
2023/07/30 04:49:29;;;;;;;;;1.00;1.00;;;;;18.19;62.06;100916.28;5032764;28;45360;-71
2023/07/30 04:51:54;;;;;;;;;3.00;1.25;;;;;18.20;62.10;100919.78;5038251;28;46309;-71
2023/07/30 04:54:20;;;;;;;;;1.00;1.00;;;;;18.20;62.03;100920.66;5031153;28;69247;-71
2023/07/30 04:56:45;;;;;;;;;2.00;2.00;;;;;18.19;62.31;100921.56;5021136;28;64556;-71
2023/07/30 04:59:10;;;;;;;;;2.75;1.00;;;;;18.17;62.37;100922.63;5046856;28;71516;-71
2023/07/30 05:01:36;;;;;;;;;4.75;1.00;;;;;18.16;62.10;100929.69;5035920;28;72243;-71
2023/07/30 05:04:01;;;;;;;;;1.50;1.00;;;;;18.17;62.13;100933.22;5039034;28;47851;-71
2023/07/30 05:06:26;;;;;;;;;0.75;0.75;;;;;18.16;62.58;100934.97;5037137;28;45481;-71
2023/07/30 05:08:51;;;;;;;;;1.75;1.00;;;;;18.12;62.51;100936.09;5031724;28;63833;-70
2023/07/30 05:11:17;;;;;;;;;1.75;1.00;;;;;18.10;62.28;100940.63;5025249;28;71383;-71
2023/07/30 05:13:42;;;;;;;;;2.75;2.00;;;;;18.08;62.26;100937.22;5033154;28;61257;-71
2023/07/30 05:16:07;;;;;;;;;1.50;0.75;;;;;18.08;62.37;100941.63;5027659;28;45403;-71
2023/07/30 05:18:33;;;;;;;;;2.50;1.00;;;;;18.07;62.15;100956.69;5032233;28;70041;-71
2023/07/30 05:20:58;;;;;;;;;2.00;2.00;;;;;18.09;62.27;100959.25;5032017;28;76630;-71
2023/07/30 05:23:23;;;;;;;;;3.25;1.75;;;;;18.08;62.63;100958.41;5027235;28;69268;-71
2023/07/30 05:25:49;;;;;;;;;2.50;2.00;;;;;18.08;62.63;100954.88;5027900;28;48317;-71
2023/07/30 05:28:14;;;;;;;;;2.75;1.00;;;;;18.06;62.13;100956.75;5031320;28;45474;-71
2023/07/30 05:30:39;;;;;;;;;5.25;1.75;;;;;18.09;62.14;100957.44;5011835;28;69420;-71
2023/07/30 05:33:05;;;;;;;;;4.00;1.00;;;;;18.07;62.38;100954.03;5031952;28;72942;-71
2023/07/30 05:35:30;;;;;;;;;1.75;1.25;;;;;18.13;62.39;100956.38;5034762;28;63310;-71
2023/07/30 05:37:56;;;;;;;;;1.00;1.00;;;;;18.13;62.43;100964.31;5034120;28;70535;-71
2023/07/30 05:40:21;;;;;;;;;4.75;2.25;;;;;18.12;62.53;100959.94;5024866;28;57197;-71
2023/07/30 05:42:47;;;;;;;;;2.25;1.75;;;;;18.14;62.21;100962.50;5016336;28;45537;-71
2023/07/30 05:45:12;;;;;;;;;4.00;2.00;;;;;18.14;62.22;100958.06;5044721;28;45410;-71
2023/07/30 05:47:38;;;;;;;;;1.00;1.00;;;;;18.15;61.97;100954.47;5037015;28;45602;-71
2023/07/30 05:50:03;;;;;;;;;2.00;1.00;;;;;18.17;62.28;100941.16;5019050;28;48008;-71
2023/07/30 05:52:29;;;;;;;;;2.00;1.00;;;;;18.21;61.95;100963.88;5038076;28;45380;-71
2023/07/30 05:54:54;;;;;;;;;1.00;0.25;;;;;18.26;61.74;100951.22;5026774;28;45292;-71
2023/07/30 05:57:19;;;;;;;;;5.50;1.50;;;;;18.28;61.65;100953.81;5038298;28;45571;-71
2023/07/30 05:59:45;;;;;;;;;1.00;1.00;;;;;18.28;61.42;100956.44;5033231;28;45923;-70
2023/07/30 06:02:10;;;;;;;;;2.50;2.00;;;;;18.30;61.65;100958.06;5031567;28;66199;-70
2023/07/30 06:04:37;;;;;;;;;3.50;1.25;;;;;18.37;61.56;100961.22;5029563;28;45340;-71
2023/07/30 06:07:03;;;;;;;;;3.00;1.00;;;;;18.39;61.18;100967.28;5021268;28;45510;-71
2023/07/30 06:09:28;;;;;;;;;1.00;1.00;;;;;18.42;61.34;100966.28;5010170;28;48365;-71
2023/07/30 06:11:56;;;;;;;;;1.25;1.00;;;;;18.43;60.84;100960.03;5014149;28;45458;-71
2023/07/30 06:14:21;;;;;;;;;2.25;2.00;;;;;18.49;61.01;100978.25;5030334;28;45586;-71
2023/07/30 06:16:46;;;;;;;;;2.00;2.00;;;;;18.52;60.99;100970.97;5026036;28;45322;-71
2023/07/30 06:19:12;;;;;;;;;4.25;1.00;;;;;18.57;61.18;100982.19;5037491;28;45383;-71
2023/07/30 06:21:37;;;;;;;;;3.00;2.00;;;;;18.59;60.81;100969.69;5038864;28;53870;-71
2023/07/30 06:24:02;;;;;;;;;1.50;1.00;;;;;18.66;60.47;100978.16;5033937;28;64890;-70
2023/07/30 06:26:28;;;;;;;;;3.50;2.00;;;;;18.67;59.97;100976.34;5036623;28;45327;-69
2023/07/30 06:28:53;;;;;;;;;2.00;0.25;;;;;18.70;60.33;100974.38;5032407;28;47037;-69
2023/07/30 06:31:19;;;;;;;;;3.00;1.00;;;;;18.73;60.15;100975.97;5022692;28;45397;-69
2023/07/30 06:33:44;;;;;;;;;2.00;0.50;;;;;18.80;60.01;100993.25;5042668;28;64255;-69
2023/07/30 06:36:09;;;;;;;;;4.25;1.00;;;;;18.83;59.97;100987.81;5037291;28;45245;-69
2023/07/30 06:38:35;;;;;;;;;5.25;2.00;;;;;18.87;59.74;100996.44;5024117;28;67005;-71
2023/07/30 06:41:00;;;;;;;;;4.00;2.00;;;;;18.93;59.46;100996.94;5018135;28;71452;-71
2023/07/30 06:43:25;;;;;;;;;3.00;2.25;;;;;18.99;59.15;101008.97;5034818;28;45347;-70
2023/07/30 06:45:52;;;;;;;;;4.00;1.75;;;;;19.05;59.08;101010.41;5025973;28;69253;-70
2023/07/30 06:48:17;;;;;;;;;3.25;1.00;;;;;19.13;58.79;101010.84;5035013;28;45792;-70
2023/07/30 06:50:43;;;;;;;;;3.50;2.00;;;;;19.27;58.35;101020.66;5034582;28;59772;-70
2023/07/30 06:53:08;;;;;;;;;2.75;2.00;;;;;19.41;58.46;101022.50;5036418;28;45475;-70
2023/07/30 06:55:34;;;;;;;;;3.00;1.50;;;;;19.51;58.44;101019.19;5040298;28;57419;-70
2023/07/30 06:57:59;;;;;;;;;1.75;1.00;;;;;19.60;57.65;101017.78;5039888;28;74852;-69
2023/07/30 07:00:24;;;;;;;;;1.25;1.25;;;;;19.61;57.47;101016.81;5041212;28;62781;-69
2023/07/30 07:02:50;;;;;;;;;4.00;2.50;;;;;19.64;57.89;101010.50;5032810;28;46036;-70
2023/07/30 07:05:16;;;;;;;;;4.00;2.00;;;;;19.66;57.31;101012.09;5030266;28;45368;-70
2023/07/30 07:07:41;;;;;;;;;2.00;2.00;;;;;19.74;56.75;101014.28;5013527;28;47712;-69
2023/07/30 07:10:07;;;;;;;;;2.00;2.00;;;;;19.72;56.64;101006.41;5027975;28;62901;-70
2023/07/30 07:12:32;;;;;;;;;3.00;1.50;;;;;19.76;56.01;101008.91;5023747;28;45441;-70
2023/07/30 07:15:00;;;;;;;;;4.00;1.00;;;;;19.78;55.83;101013.19;5040551;28;45212;-70
2023/07/30 07:17:26;;;;;;;;;3.50;1.75;;;;;19.78;55.85;101010.53;5039467;28;47329;-70
2023/07/30 07:19:51;;;;;;;;;3.25;1.00;;;;;19.80;56.45;101016.59;5042433;28;45192;-70
2023/07/30 07:22:17;;;;;;;;;4.00;2.25;;;;;19.83;56.39;101011.09;5038605;28;47691;-69
2023/07/30 07:24:44;;;;;;;;;2.75;2.00;;;;;19.88;56.48;101021.44;5045419;28;45593;-71
2023/07/30 07:27:09;;;;;;;;;2.50;2.00;;;;;19.91;56.11;101011.47;5050464;28;46626;-69
2023/07/30 07:29:35;;;;;;;;;4.00;2.25;;;;;19.92;55.88;101018.50;5016772;28;45340;-69
2023/07/30 07:32:00;;;;;;;;;5.00;1.00;;;;;19.90;55.80;101025.72;5021188;28;65296;-72
2023/07/30 07:34:25;;;;;;;;;1.50;1.00;;;;;19.99;55.84;101023.41;5040312;28;46524;-70
2023/07/30 07:36:51;;;;;;;;;4.00;2.25;;;;;20.11;55.94;101017.34;5039022;28;75657;-69
2023/07/30 07:39:16;;;;;;;;;3.75;1.00;;;;;20.21;54.08;101025.59;5035668;28;66265;-68
2023/07/30 07:41:41;;;;;;;;;3.75;2.25;;;;;20.26;54.82;101029.66;5038663;28;62425;-68
2023/07/30 07:44:07;;;;;;;;;2.50;2.00;;;;;20.31;54.54;101034.72;5010104;28;45844;-68
2023/07/30 07:46:33;;;;;;;;;4.00;2.50;;;;;20.34;54.26;101031.84;5040249;28;45355;-69
2023/07/30 07:48:59;;;;;;;;;1.00;1.00;;;;;20.39;54.38;101034.22;5038663;28;45687;-68
2023/07/30 07:51:25;;;;;;;;;3.25;2.75;;;;;20.39;54.45;101031.56;5040167;28;45487;-68
2023/07/30 07:53:50;;;;;;;;;2.00;2.00;;;;;20.41;53.96;101040.28;5040202;28;45308;-70
2023/07/30 07:56:15;;;;;;;;;6.00;3.00;;;;;20.42;53.85;101040.19;5039406;28;46023;-71
2023/07/30 07:58:42;;;;;;;;;5.25;1.50;;;;;20.47;53.79;101046.06;5037139;28;69998;-71
2023/07/30 08:01:08;;;;;;;;;5.50;2.00;;;;;20.55;53.57;101036.75;5049966;28;45525;-72
2023/07/30 08:03:33;;;;;;;;;2.25;2.00;;;;;20.56;53.01;101046.44;5053549;28;45305;-68
2023/07/30 08:05:58;;;;;;;;;5.50;3.25;;;;;20.65;53.35;101060.03;5036751;28;61237;-68
2023/07/30 08:08:25;;;;;;;;;5.00;3.00;;;;;20.78;52.50;101061.88;5038356;28;54566;-69
2023/07/30 08:10:51;;;;;;;;;3.00;2.25;;;;;20.80;52.41;101062.63;5031111;28;45347;-70
2023/07/30 08:13:16;;;;;;;;;4.25;2.00;;;;;20.75;52.44;101054.97;5033455;28;70298;-69
2023/07/30 08:15:41;;;;;;;;;2.00;2.00;;;;;20.83;53.09;101060.63;5032711;28;46201;-70
2023/07/30 08:18:07;;;;;;;;;5.00;2.00;;;;;20.99;51.96;101060.47;5032364;28;67944;-69
2023/07/30 08:20:32;;;;;;;;;2.75;2.00;;;;;21.02;52.47;101054.13;5028882;28;45200;-73
2023/07/30 08:22:57;;;;;;;;;4.75;2.00;;;;;21.10;51.27;101064.25;5034607;28;45570;-71
2023/07/30 08:25:23;;;;;;;;;1.00;1.00;;;;;21.11;51.18;101064.16;5029884;28;60047;-70
2023/07/30 08:27:48;;;;;;;;;1.50;1.50;;;;;21.06;51.90;101058.28;5035694;28;65830;-71
2023/07/30 08:30:13;;;;;;;;;4.75;2.25;;;;;21.11;52.01;101066.81;5023151;28;45251;-71
2023/07/30 08:32:41;;;;;;;;;4.00;2.00;;;;;21.16;51.78;101061.16;5032039;28;45291;-70
2023/07/30 08:35:07;;;;;;;;;3.00;3.00;;;;;21.30;51.63;101055.81;5022303;28;46228;-71
2023/07/30 08:37:32;;;;;;;;;5.75;2.00;;;;;21.51;51.39;101074.81;5035991;28;45288;-70
2023/07/30 08:39:57;;;;;;;;;3.50;2.00;;;;;21.66;50.99;101070.25;5031752;28;62460;-71
2023/07/30 08:42:23;;;;;;;;;6.25;2.00;;;;;21.78;49.70;101064.09;5029785;28;69219;-71
2023/07/30 08:44:48;;;;;;;;;1.00;1.00;;;;;21.90;50.12;101073.06;5009328;28;74101;-71
2023/07/30 08:47:13;;;;;;;;;3.25;2.00;;;;;21.95;50.42;101070.06;5038539;28;53701;-72
2023/07/30 08:49:39;;;;;;;;;5.00;2.50;;;;;22.00;50.59;101057.28;5028793;28;63233;-72
2023/07/30 08:52:08;;;;;;;;;2.00;2.00;;;;;22.15;49.91;101064.19;5035743;28;45490;-71
2023/07/30 08:54:34;;;;;;;;;4.50;3.00;;;;;22.34;49.80;101068.25;5054905;28;46676;-72
2023/07/30 08:56:59;;;;;;;;;2.25;2.25;;;;;22.46;49.71;101063.84;5037592;28;45284;-72
2023/07/30 08:59:27;;;;;;;;;3.25;1.75;;;;;22.55;49.76;101065.84;5035786;28;45380;-72
2023/07/30 09:01:53;;;;;;;;;2.50;2.25;;;;;22.55;49.42;101064.03;5027373;28;45532;-71
2023/07/30 09:04:18;;;;;;;;;2.50;1.75;;;;;22.58;48.27;101059.47;5028710;28;51626;-71
2023/07/30 09:06:48;;;;;;;;;2.50;1.50;;;;;22.66;48.79;101062.41;5035668;28;63643;-71
2023/07/30 09:09:13;;;;;;;;;1.00;1.00;;;;;22.73;48.24;101063.66;5018151;28;45807;-71
2023/07/30 09:11:39;;;;;;;;;3.00;2.00;;;;;22.80;48.18;101058.72;5033549;28;45380;-72
2023/07/30 09:14:06;;;;;;;;;4.75;1.50;;;;;22.91;48.76;101062.31;5012045;28;47291;-72
2023/07/30 09:16:31;;;;;;;;;1.50;1.50;;;;;22.97;47.17;101057.50;5035880;28;45637;-71
2023/07/30 09:18:57;;;;;;;;;4.50;3.00;;;;;23.00;47.71;101051.91;5033978;28;51844;-71
2023/07/30 09:21:33;;;;;;;;;3.00;2.50;;;;;23.05;46.91;101045.28;5026336;28;45728;-71
2023/07/30 09:24:05;;;;;;;;;3.00;2.50;;;;;23.07;47.98;101063.88;5021150;28;45607;-71
2023/07/30 09:26:39;;;;;;;;;3.00;2.00;;;;;23.07;47.66;101059.41;5014762;28;45400;-71
2023/07/30 09:29:08;;;;;;;;;3.50;2.25;;;;;23.06;45.98;101054.16;5023017;28;45542;-70
2023/07/30 09:31:46;;;;;;;;;3.00;2.25;;;;;23.01;46.95;101058.97;5025623;28;45506;-73
2023/07/30 09:34:15;;;;;;;;;4.75;2.00;;;;;23.08;46.92;101054.91;5029757;28;45415;-73
2023/07/30 09:36:40;;;;;;;;;2.75;2.00;;;;;23.16;47.79;101055.19;5051785;28;45799;-70
2023/07/30 09:39:15;;;;;;;;;4.75;1.75;;;;;23.25;47.78;101059.00;5027969;28;68129;-69
2023/07/30 09:41:42;;;;;;;;;3.50;1.50;;;;;23.31;45.88;101056.69;5026979;28;46293;-71
2023/07/30 09:44:07;;;;;;;;;3.50;1.50;;;;;23.41;45.86;101054.19;5031368;28;46332;-70
2023/07/30 09:46:45;;;;;;;;;4.50;2.25;;;;;23.43;45.66;101057.59;5015743;28;45781;-73
2023/07/30 09:49:10;;;;;;;;;4.00;3.00;;;;;23.44;46.18;101053.09;5022946;28;45366;-73
2023/07/30 09:51:39;;;;;;;;;4.00;3.00;;;;;23.46;46.22;101067.16;5035712;28;45588;-73
2023/07/30 09:54:09;;;;;;;;;3.75;2.75;;;;;23.50;45.91;101061.47;5045231;28;45502;-70
2023/07/30 09:56:39;;;;;;;;;4.50;2.25;;;;;23.55;46.31;101062.94;5030684;28;45527;-75
2023/07/30 09:59:05;;;;;;;;;3.75;3.00;;;;;23.58;45.12;101052.03;5043502;28;46029;-70
2023/07/30 10:01:31;;;;;;;;;3.25;3.25;;;;;23.63;44.67;101060.53;5029695;28;45471;-70
2023/07/30 10:03:57;;;;;;;;;4.00;2.75;;;;;23.65;43.58;101063.94;5028960;28;45662;-72
2023/07/30 10:06:29;;;;;;;;;3.75;1.50;;;;;23.63;45.72;101063.22;5012003;28;45758;-71
2023/07/30 10:08:57;;;;;;;;;3.00;2.50;;;;;23.59;44.84;101078.63;5027916;28;47163;-72
2023/07/30 10:11:22;;;;;;;;;3.00;3.00;;;;;23.49;45.49;101074.94;5027583;28;45259;-71
2023/07/30 10:13:48;;;;;;;;;5.25;2.50;;;;;23.45;44.62;101087.69;5030954;28;46022;-72
2023/07/30 10:16:14;;;;;;;;;6.75;2.50;;;;;23.47;45.39;101083.06;5042657;28;62432;-69
2023/07/30 10:18:40;;;;;;;;;5.25;2.25;;;;;23.50;44.88;101076.66;5026836;28;52169;-69
2023/07/30 10:21:09;;;;;;;;;4.00;2.00;;;;;23.57;44.90;101080.56;5043548;28;45353;-74
2023/07/30 10:23:34;;;;;;;;;4.75;4.00;;;;;23.64;45.37;101078.28;5025170;28;46549;-73
2023/07/30 10:26:09;;;;;;;;;3.25;1.50;;;;;23.66;44.44;101073.69;5040046;28;45555;-72
2023/07/30 10:28:36;;;;;;;;;6.00;3.25;;;;;23.67;44.26;101078.91;5026900;28;45502;-73
2023/07/30 10:31:08;;;;;;;;;3.00;2.50;;;;;23.69;43.29;101092.13;5036805;28;45405;-73
2023/07/30 10:33:50;;;;;;;;;2.00;1.75;;;;;23.61;43.56;101092.72;5010555;28;47366;-79
2023/07/30 10:36:42;;;;;;;;;2.25;1.25;;;;;23.62;43.95;101091.75;5014658;28;45767;-75
2023/07/30 10:39:16;;;;;;;;;4.25;2.50;;;;;23.67;43.99;101092.25;5040089;28;45320;-75
2023/07/30 10:41:46;;;;;;;;;2.50;2.00;;;;;23.71;43.05;101092.88;5024404;28;45518;-74
2023/07/30 10:44:19;;;;;;;;;7.00;3.75;;;;;23.74;44.20;101095.28;5034942;28;45408;-76
2023/07/30 10:46:44;;;;;;;;;10.00;4.00;;;;;23.71;42.10;101092.88;5040226;28;45300;-78
2023/07/30 10:49:11;;;;;;;;;6.25;4.25;;;;;23.75;42.65;101089.00;5035714;28;45406;-75
2023/07/30 10:51:37;;;;;;;;;4.00;2.50;;;;;23.74;41.56;101091.78;5032924;28;45886;-73
2023/07/30 10:54:06;;;;;;;;;1.75;0.75;;;;;23.68;43.56;101079.75;5030037;28;60748;-76
2023/07/30 10:56:31;;;;;;;;;2.75;1.25;;;;;23.75;43.74;101085.47;5035509;28;45652;-78
2023/07/30 10:58:57;;;;;;;;;6.00;3.00;;;;;23.78;42.60;101077.19;5049509;28;54983;-75
2023/07/30 11:01:26;;;;;;;;;6.00;5.00;;;;;23.78;43.84;101070.06;5028099;28;45486;-76
2023/07/30 11:03:52;;;;;;;;;3.25;2.25;;;;;23.66;41.63;101063.00;5031320;28;48062;-79
2023/07/30 11:06:25;;;;;;;;;5.00;4.00;;;;;23.54;41.97;101062.09;5017806;28;45412;-76
2023/07/30 11:08:50;;;;;;;;;5.75;2.50;;;;;23.52;41.82;101082.75;5029180;28;45455;-75
2023/07/30 11:11:16;;;;;;;;;3.50;2.25;;;;;23.40;41.88;101081.00;5033089;28;45755;-74
2023/07/30 11:13:43;;;;;;;;;3.75;3.00;;;;;23.31;41.89;101093.22;5039315;28;46110;-74
2023/07/30 11:16:09;;;;;;;;;6.00;2.50;;;;;23.29;43.14;101098.69;5029352;28;45242;-74
2023/07/30 11:18:36;;;;;;;;;2.50;1.25;;;;;23.34;41.66;101093.00;5047528;28;45514;-80